createdAt,value
2017-12-28T00:02:21.011Z,68.10
2017-12-28T00:04:48.602Z,68.40
2017-12-28T00:07:16.208Z,68.50
2017-12-28T00:09:43.846Z,68.30
2017-12-28T00:12:11.460Z,68.90
2017-12-28T00:14:39.095Z,68.80
2017-12-28T00:17:07.425Z,68.90
2017-12-28T00:19:35.042Z,68.90
2017-12-28T00:22:03.398Z,68.80
2017-12-28T00:24:30.970Z,68.70
2017-12-28T00:26:59.330Z,68.70
2017-12-28T00:29:26.908Z,68.50
2017-12-28T00:31:55.313Z,69.00
2017-12-28T00:34:22.924Z,68.90
2017-12-28T00:36:50.509Z,69.60
2017-12-28T00:39:18.836Z,68.80
2017-12-28T00:41:46.426Z,69.40
2017-12-28T00:44:13.998Z,68.50
2017-12-28T00:46:41.593Z,68.70
2017-12-28T00:49:09.169Z,68.70
2017-12-28T00:51:36.766Z,68.10
2017-12-28T00:54:04.337Z,68.60
2017-12-28T00:56:31.950Z,68.80
2017-12-28T00:58:59.521Z,68.70
2017-12-28T01:01:27.117Z,68.40
2017-12-28T01:03:54.686Z,68.60
2017-12-28T01:06:23.046Z,68.60
2017-12-28T01:08:51.387Z,68.60
2017-12-28T01:11:18.977Z,68.60
2017-12-28T01:13:46.547Z,68.70
2017-12-28T01:16:14.138Z,68.80
2017-12-28T01:18:41.713Z,68.90
2017-12-28T01:21:09.303Z,68.80
2017-12-28T01:23:36.910Z,68.90
2017-12-28T01:26:04.510Z,68.70
2017-12-28T01:28:32.077Z,69.10
2017-12-28T01:30:59.650Z,69.00
2017-12-28T01:33:27.239Z,69.60
2017-12-28T01:35:54.797Z,69.40
2017-12-28T01:38:22.402Z,69.70
2017-12-28T01:40:49.981Z,70.10
2017-12-28T01:43:17.578Z,70.00
2017-12-28T01:45:45.154Z,70.00
2017-12-28T01:48:12.746Z,69.70
2017-12-28T01:50:40.318Z,69.90
2017-12-28T01:53:07.918Z,70.00
2017-12-28T01:55:35.488Z,70.20
2017-12-28T01:58:03.081Z,70.10
2017-12-28T02:00:30.652Z,70.00
2017-12-28T02:02:58.241Z,70.70
2017-12-28T02:05:27.452Z,70.20
2017-12-28T02:07:55.041Z,69.80
2017-12-28T02:10:23.450Z,70.10
2017-12-28T02:12:51.043Z,70.20
2017-12-28T02:15:18.617Z,69.80
2017-12-28T02:17:46.210Z,70.00
2017-12-28T02:20:13.787Z,70.20
2017-12-28T02:22:42.170Z,70.40
2017-12-28T02:25:10.506Z,70.40
2017-12-28T02:27:38.098Z,70.10
2017-12-28T02:30:05.667Z,70.00
2017-12-28T02:32:34.024Z,70.40
2017-12-28T02:35:01.595Z,70.40
2017-12-28T02:37:29.190Z,70.50
2017-12-28T02:39:56.791Z,70.50
2017-12-28T02:42:24.388Z,70.00
2017-12-28T02:44:51.957Z,70.20
2017-12-28T02:47:19.527Z,70.30
2017-12-28T02:49:47.120Z,70.30
2017-12-28T02:52:14.694Z,70.30
2017-12-28T02:54:42.279Z,70.10
2017-12-28T02:57:09.842Z,70.30
2017-12-28T02:59:38.206Z,69.80
2017-12-28T03:02:05.782Z,69.70
2017-12-28T03:04:34.136Z,69.60
2017-12-28T03:07:01.697Z,69.60
2017-12-28T03:09:29.292Z,69.90
2017-12-28T03:11:56.866Z,69.40
2017-12-28T03:14:24.454Z,69.30
2017-12-28T03:16:52.031Z,70.10
2017-12-28T03:19:19.626Z,69.80
2017-12-28T03:21:47.188Z,69.70
2017-12-28T03:24:14.777Z,69.80
2017-12-28T03:26:42.354Z,69.70
2017-12-28T03:29:09.942Z,69.50
2017-12-28T03:31:38.273Z,70.40
2017-12-28T03:34:05.870Z,70.30
2017-12-28T03:36:33.443Z,69.90
2017-12-28T03:39:01.032Z,69.90
2017-12-28T03:41:28.599Z,70.10
2017-12-28T03:43:56.186Z,70.30
2017-12-28T03:46:23.757Z,69.70
2017-12-28T03:48:51.350Z,69.40
2017-12-28T03:51:18.919Z,69.70
2017-12-28T03:53:46.521Z,70.10
2017-12-28T03:56:14.089Z,70.00
2017-12-28T03:58:41.662Z,69.90
2017-12-28T04:01:10.025Z,69.80
2017-12-28T04:03:37.599Z,69.70
2017-12-28T04:06:05.948Z,70.10
2017-12-28T04:08:33.522Z,70.10
2017-12-28T04:11:01.113Z,70.00
2017-12-28T04:13:28.678Z,69.70
2017-12-28T04:15:56.278Z,69.60
2017-12-28T04:18:23.848Z,69.60
2017-12-28T04:20:51.450Z,69.10
2017-12-28T04:23:19.024Z,69.10
2017-12-28T04:25:46.619Z,69.10
2017-12-28T04:28:14.193Z,69.30
2017-12-28T04:30:41.785Z,69.80
2017-12-28T04:33:09.362Z,69.60
2017-12-28T04:35:36.954Z,69.30
2017-12-28T04:38:04.531Z,70.00
2017-12-28T04:40:32.113Z,70.50
2017-12-28T04:42:59.682Z,69.50
2017-12-28T04:45:27.270Z,69.30
2017-12-28T04:47:54.846Z,69.90
2017-12-28T04:50:22.442Z,70.00
2017-12-28T04:52:50.782Z,70.70
2017-12-28T04:55:18.373Z,70.60
2017-12-28T04:57:46.714Z,70.50
2017-12-28T05:00:14.314Z,70.50
2017-12-28T05:02:41.890Z,71.20
2017-12-28T05:05:09.477Z,70.90
2017-12-28T05:07:37.047Z,70.40
2017-12-28T05:10:04.618Z,70.20
2017-12-28T05:12:32.222Z,69.90
2017-12-28T05:14:59.795Z,69.90
2017-12-28T05:17:27.387Z,69.70
2017-12-28T05:19:54.962Z,70.00
2017-12-28T05:22:22.554Z,70.10
2017-12-28T05:24:50.125Z,70.70
2017-12-28T05:27:17.714Z,70.40
2017-12-28T05:29:45.290Z,70.60
2017-12-28T05:32:12.884Z,70.30
2017-12-28T05:34:41.213Z,70.40
2017-12-28T05:37:08.915Z,70.30
2017-12-28T05:39:36.485Z,70.10
2017-12-28T05:42:04.086Z,70.10
2017-12-28T05:44:31.657Z,70.30
2017-12-28T05:46:59.262Z,70.10
2017-12-28T05:49:26.843Z,70.50
2017-12-28T05:51:54.481Z,70.50
2017-12-28T05:54:22.059Z,70.00
2017-12-28T05:56:49.654Z,69.90
2017-12-28T05:59:17.225Z,70.60
2017-12-28T06:01:44.809Z,70.40
2017-12-28T06:04:13.144Z,70.80
2017-12-28T06:06:40.749Z,70.80
2017-12-28T06:09:08.318Z,71.80
2017-12-28T06:11:35.913Z,71.50
2017-12-28T06:14:03.490Z,71.00
2017-12-28T06:16:31.086Z,71.00
2017-12-28T06:18:59.421Z,71.40
2017-12-28T06:21:26.984Z,71.30
2017-12-28T06:23:54.577Z,70.90
2017-12-28T06:26:22.141Z,71.20
2017-12-28T06:28:49.730Z,71.50
2017-12-28T06:31:17.295Z,72.00
2017-12-28T06:33:44.890Z,72.60
2017-12-28T06:36:12.462Z,73.10
2017-12-28T06:38:40.818Z,72.90
2017-12-28T06:41:08.381Z,72.90
2017-12-28T06:43:35.979Z,73.10
2017-12-28T06:46:03.545Z,72.50
2017-12-28T06:48:31.129Z,72.00
2017-12-28T06:50:58.695Z,71.30
2017-12-28T06:53:26.286Z,71.80
2017-12-28T06:55:53.854Z,71.60
2017-12-28T06:58:21.433Z,72.40
2017-12-28T07:00:49.007Z,71.90
2017-12-28T07:03:16.600Z,71.90
2017-12-28T07:05:44.183Z,71.80
2017-12-28T07:08:12.545Z,72.10
2017-12-28T07:10:40.117Z,71.90
2017-12-28T07:13:07.710Z,72.60
2017-12-28T07:15:35.279Z,71.90
2017-12-28T07:18:02.893Z,71.60
2017-12-28T07:20:30.453Z,71.80
2017-12-28T07:22:58.816Z,72.20
2017-12-28T07:25:26.389Z,72.20
2017-12-28T07:27:53.952Z,72.00
2017-12-28T07:30:21.536Z,72.90
2017-12-28T07:32:49.110Z,72.80
2017-12-28T07:35:16.701Z,72.90
2017-12-28T07:37:44.271Z,72.60
2017-12-28T07:40:11.905Z,72.70
2017-12-28T07:42:39.470Z,72.30
2017-12-28T07:45:07.066Z,72.30
2017-12-28T07:47:34.638Z,71.70
2017-12-28T07:50:03.322Z,72.30
2017-12-28T07:52:31.653Z,72.10
2017-12-28T07:54:59.257Z,72.10
2017-12-28T07:57:26.885Z,72.60
2017-12-28T07:59:54.477Z,72.60
2017-12-28T08:02:22.046Z,72.70
2017-12-28T08:04:49.643Z,72.70
2017-12-28T08:07:17.218Z,72.70
2017-12-28T08:09:44.805Z,73.00
2017-12-28T08:12:13.134Z,72.50
2017-12-28T08:14:40.729Z,72.40
2017-12-28T08:17:08.302Z,72.20
2017-12-28T08:19:36.661Z,71.80
2017-12-28T08:22:04.289Z,71.80
2017-12-28T08:24:31.889Z,72.40
2017-12-28T08:26:59.459Z,72.50
2017-12-28T08:29:27.819Z,73.40
2017-12-28T08:31:55.390Z,73.40
2017-12-28T08:34:22.987Z,72.30
2017-12-28T08:36:50.566Z,72.70
2017-12-28T08:39:18.138Z,72.60
2017-12-28T08:41:45.730Z,72.40
2017-12-28T08:44:14.085Z,72.10
2017-12-28T08:46:41.673Z,72.10
2017-12-28T08:49:09.242Z,72.50
2017-12-28T08:51:36.846Z,72.40
2017-12-28T08:54:04.417Z,72.30
2017-12-28T08:56:32.015Z,72.20
2017-12-28T08:59:00.353Z,72.20
2017-12-28T09:01:27.963Z,72.10
2017-12-28T09:03:55.542Z,72.30
2017-12-28T09:06:23.148Z,72.30
2017-12-28T09:08:51.197Z,71.90
2017-12-28T09:11:18.787Z,72.00
2017-12-28T09:13:46.359Z,72.40
2017-12-28T09:16:13.954Z,72.10
2017-12-28T09:18:41.530Z,71.90
2017-12-28T09:21:09.131Z,72.00
2017-12-28T09:23:37.479Z,72.40
2017-12-28T09:26:05.096Z,72.30
2017-12-28T09:28:33.429Z,72.00
2017-12-28T09:31:01.034Z,72.00
2017-12-28T09:33:28.614Z,71.60
2017-12-28T09:35:56.243Z,71.60
2017-12-28T09:38:23.811Z,71.90
2017-12-28T09:40:51.406Z,71.90
2017-12-28T09:43:18.990Z,71.70
2017-12-28T09:45:46.583Z,71.80
2017-12-28T09:48:14.158Z,72.20
2017-12-28T09:50:41.745Z,72.00
2017-12-28T09:53:09.321Z,71.80
2017-12-28T09:55:37.683Z,71.80
2017-12-28T09:58:05.258Z,71.80
2017-12-28T10:00:32.839Z,72.10
2017-12-28T10:03:00.440Z,72.00
2017-12-28T10:05:28.015Z,71.80
2017-12-28T10:07:55.609Z,71.60
2017-12-28T10:10:23.950Z,71.80
2017-12-28T10:12:51.546Z,71.80
2017-12-28T10:15:19.137Z,71.40
2017-12-28T10:17:47.504Z,71.90
2017-12-28T10:20:15.078Z,71.80
2017-12-28T10:22:42.672Z,71.60
2017-12-28T10:25:10.277Z,71.90
2017-12-28T10:27:37.877Z,71.60
2017-12-28T10:30:05.449Z,71.70
2017-12-28T10:32:33.049Z,71.30
2017-12-28T10:35:00.630Z,71.40
2017-12-28T10:37:28.226Z,71.50
2017-12-28T10:39:55.800Z,71.80
2017-12-28T10:42:24.163Z,71.80
2017-12-28T10:44:51.730Z,71.80
2017-12-28T10:47:19.327Z,71.80
2017-12-28T10:49:46.894Z,71.50
2017-12-28T10:52:14.491Z,71.80
2017-12-28T10:54:42.064Z,71.90
2017-12-28T10:57:09.659Z,71.50
2017-12-28T10:59:37.230Z,71.10
2017-12-28T11:02:04.826Z,71.50
2017-12-28T11:04:32.399Z,71.30
2017-12-28T11:06:59.969Z,70.80
2017-12-28T11:09:28.324Z,71.00
2017-12-28T11:11:55.902Z,71.00
2017-12-28T11:14:24.269Z,71.30
2017-12-28T11:16:51.834Z,71.30
2017-12-28T11:19:19.435Z,71.30
2017-12-28T11:21:47.031Z,71.10
2017-12-28T11:24:14.626Z,71.10
2017-12-28T11:26:42.195Z,71.30
2017-12-28T11:29:11.078Z,71.30
2017-12-28T11:31:38.646Z,71.30
2017-12-28T11:34:06.242Z,71.20
2017-12-28T11:36:33.810Z,71.70
2017-12-28T11:39:01.424Z,71.50
2017-12-28T11:41:28.991Z,71.90
2017-12-28T11:43:56.581Z,71.80
2017-12-28T11:46:24.155Z,72.50
2017-12-28T11:48:51.756Z,72.10
2017-12-28T11:51:23.898Z,71.80
2017-12-28T11:53:51.493Z,71.80
2017-12-28T11:56:20.920Z,71.50
2017-12-28T11:58:49.429Z,71.60
2017-12-28T12:01:19.794Z,71.30
2017-12-28T12:03:49.044Z,71.70
2017-12-28T12:06:22.250Z,72.00
2017-12-28T12:08:55.390Z,72.00
2017-12-28T12:11:22.957Z,71.60
2017-12-28T12:13:50.552Z,71.10
2017-12-28T12:16:18.125Z,71.40
2017-12-28T12:18:45.742Z,71.80
2017-12-28T12:21:13.315Z,71.50
2017-12-28T12:23:40.910Z,71.30
2017-12-28T12:26:08.482Z,71.50
2017-12-28T12:28:36.075Z,71.70
2017-12-28T12:31:03.643Z,71.30
2017-12-28T12:33:31.209Z,71.50
2017-12-28T12:35:58.804Z,71.30
2017-12-28T12:38:27.149Z,71.40
2017-12-28T12:40:54.750Z,71.40
2017-12-28T12:43:23.097Z,70.90
2017-12-28T12:45:50.693Z,70.90
2017-12-28T12:48:18.262Z,70.90
2017-12-28T12:50:45.861Z,71.00
2017-12-28T12:53:13.434Z,71.10
2017-12-28T12:55:41.017Z,71.40
2017-12-28T12:58:09.354Z,70.80
2017-12-28T13:00:36.949Z,70.80
2017-12-28T13:03:04.514Z,70.50
2017-12-28T13:05:32.106Z,71.00
2017-12-28T13:07:59.674Z,70.90
2017-12-28T13:10:27.266Z,70.30
2017-12-28T13:12:54.898Z,70.60
2017-12-28T13:15:22.471Z,70.60
2017-12-28T13:17:50.069Z,70.90
2017-12-28T13:20:17.671Z,70.70
2017-12-28T13:22:45.249Z,71.10
2017-12-28T13:25:12.849Z,70.60
2017-12-28T13:27:41.177Z,70.60
2017-12-28T13:30:08.773Z,70.60
2017-12-28T13:32:37.116Z,71.00
2017-12-28T13:35:04.719Z,71.00
2017-12-28T13:37:33.053Z,70.80
2017-12-28T13:40:00.658Z,70.80
2017-12-28T13:42:28.995Z,71.00
2017-12-28T13:44:56.595Z,71.00
2017-12-28T13:47:24.934Z,71.30
2017-12-28T13:49:52.526Z,71.20
2017-12-28T13:52:20.858Z,70.70
2017-12-28T13:54:48.458Z,70.80
2017-12-28T13:57:16.021Z,70.40
2017-12-28T13:59:44.393Z,70.80
2017-12-28T14:02:12.726Z,70.70
2017-12-28T14:04:40.294Z,70.60
2017-12-28T14:07:07.894Z,70.40
2017-12-28T14:09:35.468Z,70.40
2017-12-28T14:12:03.251Z,71.00
2017-12-28T14:14:30.884Z,70.70
2017-12-28T14:16:58.478Z,70.80
2017-12-28T14:19:26.049Z,71.00
2017-12-28T14:21:53.650Z,71.00
2017-12-28T14:24:21.994Z,71.10
2017-12-28T14:26:49.586Z,71.00
2017-12-28T14:29:17.925Z,71.00
2017-12-28T14:31:45.524Z,71.00
2017-12-28T14:34:13.866Z,72.80
2017-12-28T14:36:42.174Z,72.80
2017-12-28T14:39:09.754Z,71.90
2017-12-28T14:41:37.345Z,71.60
2017-12-28T14:44:04.944Z,71.40
2017-12-28T14:46:32.539Z,71.30
2017-12-28T14:49:00.115Z,71.60
2017-12-28T14:51:27.705Z,71.40
2017-12-28T14:53:55.278Z,71.50
2017-12-28T14:56:22.883Z,71.90
2017-12-28T14:58:50.453Z,71.50
2017-12-28T15:01:18.027Z,71.30
2017-12-28T15:03:45.621Z,71.00
2017-12-28T15:06:13.964Z,70.70
2017-12-28T15:08:41.561Z,70.70
2017-12-28T15:11:09.180Z,70.50
2017-12-28T15:13:36.779Z,70.70
2017-12-28T15:16:04.371Z,70.90
2017-12-28T15:18:31.966Z,70.60
2017-12-28T15:20:59.549Z,70.50
2017-12-28T15:23:27.142Z,70.30
2017-12-28T15:25:54.714Z,70.30
2017-12-28T15:28:22.310Z,70.00
2017-12-28T15:30:49.888Z,69.80
2017-12-28T15:33:17.502Z,69.80
2017-12-28T15:35:45.067Z,69.90
2017-12-28T15:38:12.658Z,69.60
2017-12-28T15:40:40.274Z,69.60
2017-12-28T15:43:07.862Z,69.50
2017-12-28T15:45:35.435Z,69.30
2017-12-28T15:48:03.069Z,69.30
2017-12-28T15:50:31.214Z,69.10
2017-12-28T15:52:58.814Z,69.30
2017-12-28T15:55:26.396Z,69.30
2017-12-28T15:57:54.755Z,69.40
2017-12-28T16:00:22.331Z,69.40
2017-12-28T16:02:50.694Z,69.20
2017-12-28T16:05:18.270Z,69.10
2017-12-28T16:07:46.625Z,68.90
2017-12-28T16:10:14.208Z,68.90
2017-12-28T16:12:41.884Z,68.30
2017-12-28T16:15:09.430Z,68.80
2017-12-28T16:17:37.761Z,68.60
2017-12-28T16:20:05.524Z,68.60
2017-12-28T16:22:33.107Z,68.20
2017-12-28T16:25:00.794Z,68.70
2017-12-28T16:27:28.347Z,69.10
2017-12-28T16:29:56.701Z,69.00
2017-12-28T16:32:24.272Z,68.90
2017-12-28T16:34:52.688Z,68.70
2017-12-28T16:37:20.295Z,68.70
2017-12-28T16:39:47.889Z,69.00
2017-12-28T16:42:15.466Z,68.70
2017-12-28T16:44:43.099Z,68.40
2017-12-28T16:47:11.434Z,68.80
2017-12-28T16:49:39.181Z,68.80
2017-12-28T16:52:06.757Z,69.10
2017-12-28T16:54:34.397Z,69.70
2017-12-28T16:57:06.481Z,69.70
2017-12-28T16:59:34.676Z,68.90
2017-12-28T17:02:09.965Z,69.20
2017-12-28T17:04:39.795Z,68.90
2017-12-28T17:07:08.008Z,69.00
2017-12-28T17:09:36.287Z,68.90
2017-12-28T17:12:04.269Z,69.10
2017-12-28T17:14:32.615Z,69.20
2017-12-28T17:17:00.913Z,68.90
2017-12-28T17:19:28.901Z,69.00
2017-12-28T17:21:56.872Z,68.90
2017-12-28T17:24:25.137Z,69.20
2017-12-28T17:26:53.276Z,69.20
2017-12-28T17:29:21.572Z,69.10
2017-12-28T17:31:49.263Z,68.90
2017-12-28T17:34:16.858Z,68.80
2017-12-28T17:36:44.429Z,69.60
2017-12-28T17:39:12.071Z,69.40
2017-12-28T17:41:40.581Z,69.30
2017-12-28T17:44:08.202Z,69.20
2017-12-28T17:46:35.853Z,69.30
2017-12-28T17:49:03.479Z,69.00
2017-12-28T17:51:31.126Z,68.90
2017-12-28T17:53:58.703Z,69.10
2017-12-28T17:56:26.346Z,68.10
2017-12-28T17:58:53.964Z,68.80
2017-12-28T18:01:21.606Z,68.90
2017-12-28T18:03:49.232Z,68.60
2017-12-28T18:06:16.877Z,68.60
2017-12-28T18:08:44.480Z,68.60
2017-12-28T18:11:12.133Z,68.50
2017-12-28T18:13:40.469Z,68.60
2017-12-28T18:16:08.106Z,68.60
2017-12-28T18:18:35.720Z,68.60
2017-12-28T18:21:03.362Z,68.80
2017-12-28T18:23:30.984Z,68.90
2017-12-28T18:25:58.585Z,68.90
2017-12-28T18:28:26.210Z,68.90
2017-12-28T18:30:53.856Z,69.00
2017-12-28T18:33:21.460Z,69.20
2017-12-28T18:35:49.091Z,69.60
2017-12-28T18:38:16.671Z,69.70
2017-12-28T18:40:44.313Z,69.70
2017-12-28T18:43:11.931Z,69.90
2017-12-28T18:45:40.346Z,69.50
2017-12-28T18:48:07.971Z,69.40
2017-12-28T18:50:35.623Z,69.00
2017-12-28T18:53:03.251Z,69.50
2017-12-28T18:55:30.914Z,69.30
2017-12-28T18:57:58.537Z,68.90
2017-12-28T19:00:26.153Z,68.80
2017-12-28T19:02:53.798Z,68.30
2017-12-28T19:05:21.411Z,68.00
2017-12-28T19:07:49.870Z,67.70
2017-12-28T19:10:18.258Z,68.50
2017-12-28T19:12:45.913Z,68.50
2017-12-28T19:15:14.302Z,68.70
2017-12-28T19:17:41.950Z,68.60
2017-12-28T19:20:10.335Z,68.30
2017-12-28T19:22:37.923Z,68.20
2017-12-28T19:25:05.552Z,68.20
2017-12-28T19:27:33.238Z,68.00
2017-12-28T19:30:00.857Z,68.30
2017-12-28T19:32:28.465Z,68.60
2017-12-28T19:34:56.078Z,69.20
2017-12-28T19:37:24.489Z,69.10
2017-12-28T19:39:52.122Z,69.00
2017-12-28T19:42:20.521Z,68.50
2017-12-28T19:44:48.142Z,68.40
2017-12-28T19:47:16.548Z,68.70
2017-12-28T19:49:44.170Z,68.60
2017-12-28T19:52:11.821Z,69.00
2017-12-28T19:54:39.443Z,69.00
2017-12-28T19:57:07.085Z,68.50
2017-12-28T19:59:35.116Z,68.10
2017-12-28T20:02:03.457Z,68.20
2017-12-28T20:04:31.153Z,68.10
2017-12-28T20:06:58.800Z,68.20
2017-12-28T20:09:26.418Z,68.20
2017-12-28T20:11:54.063Z,68.70
2017-12-28T20:14:22.454Z,69.10
2017-12-28T20:16:50.085Z,69.00
2017-12-28T20:19:17.728Z,68.70
2017-12-28T20:21:45.357Z,68.60
2017-12-28T20:24:13.006Z,67.60
2017-12-28T20:26:40.633Z,67.70
2017-12-28T20:29:08.321Z,67.80
2017-12-28T20:31:35.933Z,68.50
2017-12-28T20:34:03.578Z,68.50
2017-12-28T20:36:31.205Z,68.20
2017-12-28T20:38:58.857Z,68.50
2017-12-28T20:41:26.482Z,68.40
2017-12-28T20:43:54.130Z,68.40
2017-12-28T20:46:21.756Z,68.40
2017-12-28T20:48:49.396Z,68.60
2017-12-28T20:51:17.788Z,67.30
2017-12-28T20:53:45.429Z,67.30
2017-12-28T20:56:13.049Z,68.20
2017-12-28T20:58:40.694Z,68.10
2017-12-28T21:01:08.314Z,68.20
2017-12-28T21:03:35.959Z,67.60
2017-12-28T21:06:04.345Z,67.40
2017-12-28T21:08:32.746Z,67.50
2017-12-28T21:11:00.359Z,67.40
2017-12-28T21:13:28.008Z,68.40
2017-12-28T21:15:55.620Z,69.10
2017-12-28T21:18:23.264Z,68.50
2017-12-28T21:20:51.649Z,68.60
2017-12-28T21:23:20.062Z,68.30
2017-12-28T21:25:49.267Z,68.30
2017-12-28T21:28:17.333Z,68.40
2017-12-28T21:30:44.966Z,67.50
2017-12-28T21:33:12.587Z,67.80
2017-12-28T21:35:40.227Z,68.10
2017-12-28T21:38:07.845Z,67.50
2017-12-28T21:40:35.487Z,67.60
2017-12-28T21:43:03.891Z,67.40
2017-12-28T21:45:31.546Z,67.20
2017-12-28T21:47:59.170Z,67.50
2017-12-28T21:50:26.814Z,67.50
2017-12-28T21:52:54.453Z,67.30
2017-12-28T21:55:22.101Z,67.70
2017-12-28T21:57:49.721Z,67.60
2017-12-28T22:00:17.375Z,67.50
2017-12-28T22:02:45.016Z,67.80
2017-12-28T22:05:12.661Z,67.90
2017-12-28T22:07:40.290Z,67.80
2017-12-28T22:10:07.957Z,67.90
2017-12-28T22:12:35.579Z,68.20
2017-12-28T22:15:03.212Z,68.20
2017-12-28T22:17:30.837Z,67.40
2017-12-28T22:19:58.482Z,67.20
2017-12-28T22:22:26.869Z,67.70
2017-12-28T22:24:54.515Z,67.60
2017-12-28T22:27:22.141Z,67.70
2017-12-28T22:29:49.774Z,68.00
2017-12-28T22:32:17.397Z,68.10
2017-12-28T22:34:45.055Z,68.50
2017-12-28T22:37:13.437Z,68.50
2017-12-28T22:39:41.847Z,68.10
2017-12-28T22:42:09.470Z,68.10
2017-12-28T22:44:37.121Z,67.70
2017-12-28T22:47:04.747Z,68.80
2017-12-28T22:49:32.397Z,69.40
2017-12-28T22:52:00.037Z,69.30
2017-12-28T22:54:27.652Z,69.20
2017-12-28T22:56:55.297Z,68.60
2017-12-28T22:59:22.907Z,69.00
2017-12-28T23:01:50.550Z,69.10
2017-12-28T23:04:18.938Z,69.20
2017-12-28T23:06:46.585Z,69.20
2017-12-28T23:09:14.971Z,69.60
2017-12-28T23:11:43.398Z,69.70
2017-12-28T23:14:11.025Z,69.60
2017-12-28T23:16:38.654Z,70.00
2017-12-28T23:19:06.274Z,70.20
2017-12-28T23:21:33.913Z,70.30
2017-12-28T23:24:01.533Z,70.20
2017-12-28T23:26:29.196Z,70.20
2017-12-28T23:28:56.824Z,69.80
2017-12-28T23:31:24.487Z,70.10
2017-12-28T23:33:52.119Z,69.50
2017-12-28T23:36:19.766Z,69.20
2017-12-28T23:38:47.387Z,69.50
2017-12-28T23:41:15.048Z,69.20
2017-12-28T23:43:42.665Z,69.90
2017-12-28T23:46:10.293Z,69.70
2017-12-28T23:48:37.900Z,69.00
2017-12-28T23:51:05.549Z,69.00
2017-12-28T23:53:33.173Z,69.70
2017-12-28T23:56:01.670Z,70.60
2017-12-28T23:58:29.293Z,70.60
